Time;durP1;ratioP1;P1;durP2;ratioP2;P2;SDS_P1;SDS_P2;PMS_P1;PMS_P2;Temp;Humidity;BMP_temperature;BMP_pressure;BME280_temperature;BME280_humidity;BME280_pressure;Samples;Min_cycle;Max_cycle;Signal;HPM_P1;HPM_P2
2022/07/09 00:01:34;;;;;;;3.00;2.40;;;;;;;;;;4914325;29;20190;-77
2022/07/09 00:04:00;;;;;;;5.03;2.20;;;;;;;;;;4910381;29;20185;-77
2022/07/09 00:06:25;;;;;;;4.03;2.27;;;;;;;;;;4913215;29;20187;-76
2022/07/09 00:08:50;;;;;;;4.07;2.60;;;;;;;;;;4914894;29;20187;-77
2022/07/09 00:11:15;;;;;;;4.60;2.50;;;;;;;;;;4911096;29;20186;-76
2022/07/09 00:13:40;;;;;;;2.43;2.23;;;;;;;;;;4908093;29;20292;-78
2022/07/09 00:16:06;;;;;;;4.47;2.00;;;;;;;;;;4908055;29;20188;-77
2022/07/09 00:18:31;;;;;;;3.93;2.40;;;;;;;;;;4916975;29;20227;-78
2022/07/09 00:20:56;;;;;;;3.93;2.90;;;;;;;;;;4912634;29;20231;-76
2022/07/09 00:23:22;;;;;;;3.57;2.20;;;;;;;;;;4918526;29;20183;-76
2022/07/09 00:25:47;;;;;;;4.07;2.40;;;;;;;;;;4909167;29;20247;-76
2022/07/09 00:28:12;;;;;;;4.83;2.37;;;;;;;;;;4916893;29;20201;-76
2022/07/09 00:30:37;;;;;;;3.90;2.10;;;;;;;;;;4914428;29;20191;-77
2022/07/09 00:33:04;;;;;;;3.67;2.17;;;;;;;;;;4916220;29;20222;-77
2022/07/09 00:35:29;;;;;;;2.83;2.10;;;;;;;;;;4907784;29;20188;-77
2022/07/09 00:37:54;;;;;;;3.17;2.40;;;;;;;;;;4910849;29;20246;-76
2022/07/09 00:40:19;;;;;;;4.97;2.67;;;;;;;;;;4912928;29;20316;-76
2022/07/09 00:42:44;;;;;;;4.70;2.53;;;;;;;;;;4914329;29;20185;-76
2022/07/09 00:45:10;;;;;;;2.30;2.10;;;;;;;;;;4908574;29;20183;-76
2022/07/09 00:47:35;;;;;;;4.97;2.23;;;;;;;;;;4910732;29;20181;-77
2022/07/09 00:50:00;;;;;;;2.60;2.20;;;;;;;;;;4917100;29;20183;-77
2022/07/09 00:52:26;;;;;;;4.20;2.63;;;;;;;;;;4912434;29;20194;-76
2022/07/09 00:54:51;;;;;;;3.23;2.33;;;;;;;;;;4910373;29;20214;-77
2022/07/09 00:57:19;;;;;;;5.33;2.73;;;;;;;;;;4918182;29;20211;-76
2022/07/09 00:59:44;;;;;;;4.30;2.63;;;;;;;;;;4907658;29;20248;-76
2022/07/09 01:02:09;;;;;;;2.63;2.07;;;;;;;;;;4908595;29;20210;-77
2022/07/09 01:04:36;;;;;;;8.03;2.40;;;;;;;;;;4905677;29;20268;-76
2022/07/09 01:07:01;;;;;;;2.80;2.60;;;;;;;;;;4904766;29;20314;-77
2022/07/09 01:09:27;;;;;;;3.53;2.40;;;;;;;;;;4913184;29;20206;-76
2022/07/09 01:11:53;;;;;;;6.80;3.17;;;;;;;;;;4913367;29;20241;-77
2022/07/09 01:14:18;;;;;;;3.57;2.70;;;;;;;;;;4909149;29;20195;-76
2022/07/09 01:16:43;;;;;;;8.53;2.47;;;;;;;;;;4907950;29;20200;-76
2022/07/09 01:19:08;;;;;;;3.87;2.67;;;;;;;;;;4911484;29;20178;-75
2022/07/09 01:21:34;;;;;;;7.33;2.90;;;;;;;;;;4910146;29;20293;-76
2022/07/09 01:23:59;;;;;;;3.93;2.50;;;;;;;;;;4910768;29;20188;-76
2022/07/09 01:26:24;;;;;;;2.63;2.17;;;;;;;;;;4908694;29;20323;-76
2022/07/09 01:28:50;;;;;;;2.80;2.47;;;;;;;;;;4912103;29;20198;-77
2022/07/09 01:31:15;;;;;;;3.03;2.20;;;;;;;;;;4909335;29;20277;-76
2022/07/09 01:33:40;;;;;;;4.10;2.77;;;;;;;;;;4905424;29;20187;-76
2022/07/09 01:36:06;;;;;;;2.50;2.30;;;;;;;;;;4907047;29;20271;-77
2022/07/09 01:38:32;;;;;;;3.47;2.47;;;;;;;;;;4914554;29;20217;-76
2022/07/09 01:40:57;;;;;;;4.10;2.20;;;;;;;;;;4910741;29;20213;-76
2022/07/09 01:43:22;;;;;;;6.23;3.10;;;;;;;;;;4910823;29;20244;-76
2022/07/09 01:45:47;;;;;;;5.37;3.67;;;;;;;;;;4906196;29;20213;-76
2022/07/09 01:48:13;;;;;;;3.47;2.40;;;;;;;;;;4908463;29;20208;-77
2022/07/09 01:50:38;;;;;;;2.87;2.50;;;;;;;;;;4914359;29;20253;-76
2022/07/09 01:53:04;;;;;;;5.67;2.23;;;;;;;;;;4921318;29;20185;-76
2022/07/09 01:55:29;;;;;;;5.03;2.53;;;;;;;;;;4912517;29;20209;-76
2022/07/09 01:57:54;;;;;;;3.80;2.97;;;;;;;;;;4913458;29;20199;-76
2022/07/09 02:00:20;;;;;;;5.63;2.73;;;;;;;;;;4913464;29;20202;-76
2022/07/09 02:02:45;;;;;;;5.67;2.60;;;;;;;;;;4915886;29;20260;-77
2022/07/09 02:05:10;;;;;;;2.97;2.47;;;;;;;;;;4915381;29;20182;-76
2022/07/09 02:07:35;;;;;;;3.20;2.27;;;;;;;;;;4918123;29;20207;-76
2022/07/09 02:10:02;;;;;;;3.90;2.43;;;;;;;;;;4917467;29;20189;-76
2022/07/09 02:12:27;;;;;;;6.47;3.30;;;;;;;;;;4913294;29;20240;-77
2022/07/09 02:14:53;;;;;;;5.83;2.50;;;;;;;;;;4921902;29;20184;-76
2022/07/09 02:17:18;;;;;;;3.63;2.70;;;;;;;;;;4914019;29;20221;-76
2022/07/09 02:19:44;;;;;;;3.07;2.40;;;;;;;;;;4907530;29;20296;-76
2022/07/09 02:22:09;;;;;;;5.83;2.80;;;;;;;;;;4913512;29;20181;-76
2022/07/09 02:24:34;;;;;;;5.13;2.37;;;;;;;;;;4914830;29;20177;-77
2022/07/09 02:26:59;;;;;;;3.10;2.60;;;;;;;;;;4912775;29;20236;-78
2022/07/09 02:29:24;;;;;;;3.50;2.57;;;;;;;;;;4911891;29;20198;-76
2022/07/09 02:31:50;;;;;;;3.07;2.47;;;;;;;;;;4913375;29;20179;-77
2022/07/09 02:34:15;;;;;;;3.30;2.60;;;;;;;;;;4919820;29;20185;-76
2022/07/09 02:36:41;;;;;;;2.83;2.30;;;;;;;;;;4909445;29;20253;-76
2022/07/09 02:39:06;;;;;;;3.50;2.60;;;;;;;;;;4913422;29;20183;-77
2022/07/09 02:41:31;;;;;;;4.67;2.87;;;;;;;;;;4910471;29;20206;-76
2022/07/09 02:43:56;;;;;;;3.37;2.50;;;;;;;;;;4911211;29;20172;-77
2022/07/09 02:46:21;;;;;;;4.37;2.70;;;;;;;;;;4912920;29;20222;-77
2022/07/09 02:48:47;;;;;;;4.53;2.80;;;;;;;;;;4912143;29;20176;-77
2022/07/09 02:51:12;;;;;;;3.47;3.00;;;;;;;;;;4910739;29;20212;-77
2022/07/09 02:53:37;;;;;;;3.60;2.53;;;;;;;;;;4907122;29;20189;-76
2022/07/09 02:56:02;;;;;;;3.87;2.70;;;;;;;;;;4915376;29;20208;-76
2022/07/09 02:58:27;;;;;;;4.90;2.87;;;;;;;;;;4917930;29;20191;-76
2022/07/09 03:00:53;;;;;;;4.67;3.13;;;;;;;;;;4912276;29;20214;-76
2022/07/09 03:03:18;;;;;;;2.80;2.37;;;;;;;;;;4920389;29;20238;-77
2022/07/09 03:05:43;;;;;;;3.27;2.70;;;;;;;;;;4916693;29;20442;-76
2022/07/09 03:08:08;;;;;;;3.60;2.90;;;;;;;;;;4915891;29;20251;-77
2022/07/09 03:10:34;;;;;;;5.47;2.80;;;;;;;;;;4918443;29;20273;-76
2022/07/09 03:12:59;;;;;;;2.77;2.50;;;;;;;;;;4914776;29;20184;-76
2022/07/09 03:15:24;;;;;;;4.47;2.90;;;;;;;;;;4910402;29;20215;-76
2022/07/09 03:17:50;;;;;;;2.90;2.60;;;;;;;;;;4913046;29;20190;-76
2022/07/09 03:20:15;;;;;;;5.93;2.90;;;;;;;;;;4909539;29;20237;-77
2022/07/09 03:22:40;;;;;;;3.83;2.60;;;;;;;;;;4909857;29;20249;-76
2022/07/09 03:25:06;;;;;;;5.43;2.97;;;;;;;;;;4912489;29;20218;-78
2022/07/09 03:27:31;;;;;;;6.13;2.70;;;;;;;;;;4914940;29;20200;-77
2022/07/09 03:29:57;;;;;;;6.33;3.50;;;;;;;;;;4915758;29;20204;-77
2022/07/09 03:32:22;;;;;;;5.43;2.97;;;;;;;;;;4917341;29;20189;-77
2022/07/09 03:34:47;;;;;;;3.57;2.90;;;;;;;;;;4933522;29;20192;-77
2022/07/09 03:37:13;;;;;;;4.37;2.87;;;;;;;;;;4915992;29;20209;-76
2022/07/09 03:39:38;;;;;;;7.90;3.30;;;;;;;;;;4921126;29;20214;-76
2022/07/09 03:42:06;;;;;;;4.73;3.10;;;;;;;;;;4926607;29;20393;-76
2022/07/09 03:44:31;;;;;;;4.90;2.80;;;;;;;;;;4917224;29;20272;-76
2022/07/09 03:46:56;;;;;;;4.17;3.53;;;;;;;;;;4909313;29;20265;-76
2022/07/09 03:49:22;;;;;;;3.73;2.60;;;;;;;;;;4930380;29;20173;-76
2022/07/09 03:51:47;;;;;;;3.53;3.10;;;;;;;;;;4916076;29;20201;-76
2022/07/09 03:54:12;;;;;;;6.33;2.90;;;;;;;;;;4932427;29;20196;-76
2022/07/09 03:56:38;;;;;;;5.17;2.90;;;;;;;;;;4915476;29;20198;-76
2022/07/09 03:59:03;;;;;;;5.40;2.97;;;;;;;;;;4913597;29;20182;-77
2022/07/09 04:01:28;;;;;;;4.23;2.80;;;;;;;;;;4909270;29;20205;-76
2022/07/09 04:03:53;;;;;;;5.97;2.90;;;;;;;;;;4916744;29;20179;-76
2022/07/09 04:06:20;;;;;;;3.00;2.57;;;;;;;;;;4929267;29;20191;-76
2022/07/09 04:08:45;;;;;;;2.77;2.57;;;;;;;;;;4921138;29;20187;-76
2022/07/09 04:11:10;;;;;;;3.10;2.60;;;;;;;;;;4928520;29;20197;-77
2022/07/09 04:13:35;;;;;;;3.13;2.63;;;;;;;;;;4918115;29;20186;-76
2022/07/09 04:16:01;;;;;;;6.10;2.73;;;;;;;;;;4915737;29;20186;-77
2022/07/09 04:18:26;;;;;;;3.30;2.67;;;;;;;;;;4929386;29;20187;-76
2022/07/09 04:20:51;;;;;;;3.23;2.80;;;;;;;;;;4909661;29;20242;-77
2022/07/09 04:23:16;;;;;;;3.43;2.90;;;;;;;;;;4918786;29;20194;-76
2022/07/09 04:25:41;;;;;;;5.13;2.90;;;;;;;;;;4930626;29;20238;-76
2022/07/09 04:28:07;;;;;;;4.90;4.00;;;;;;;;;;4917592;29;20183;-77
2022/07/09 04:30:32;;;;;;;4.03;2.87;;;;;;;;;;4934388;29;20342;-76
2022/07/09 04:32:57;;;;;;;3.53;3.23;;;;;;;;;;4919440;29;20178;-77
2022/07/09 04:35:22;;;;;;;6.17;2.67;;;;;;;;;;4913664;29;20242;-77
2022/07/09 04:37:48;;;;;;;3.73;2.97;;;;;;;;;;4916781;29;20222;-76
2022/07/09 04:40:13;;;;;;;2.93;2.70;;;;;;;;;;4920635;29;20207;-78
2022/07/09 04:42:38;;;;;;;3.93;2.87;;;;;;;;;;4942947;29;20178;-76
2022/07/09 04:45:04;;;;;;;3.40;2.70;;;;;;;;;;4917422;29;20229;-77
2022/07/09 04:47:29;;;;;;;3.10;2.80;;;;;;;;;;4930602;29;20171;-77
2022/07/09 04:49:54;;;;;;;6.53;2.80;;;;;;;;;;4910984;29;20277;-77
2022/07/09 04:52:20;;;;;;;3.73;2.83;;;;;;;;;;4916538;29;20289;-76
2022/07/09 04:54:45;;;;;;;5.00;2.70;;;;;;;;;;4920642;29;20189;-77
2022/07/09 04:57:11;;;;;;;5.90;3.00;;;;;;;;;;4925077;29;20251;-77
2022/07/09 04:59:36;;;;;;;4.70;3.03;;;;;;;;;;4931328;29;20185;-76
2022/07/09 05:02:02;;;;;;;3.40;3.07;;;;;;;;;;4925958;29;20189;-77
2022/07/09 05:04:27;;;;;;;9.07;3.73;;;;;;;;;;4912407;29;20185;-76
2022/07/09 05:06:52;;;;;;;4.83;3.10;;;;;;;;;;4919007;29;20189;-76
2022/07/09 05:09:17;;;;;;;3.50;2.67;;;;;;;;;;4915480;29;20182;-76
2022/07/09 05:11:42;;;;;;;3.27;2.80;;;;;;;;;;4933570;29;20181;-77
2022/07/09 05:14:08;;;;;;;3.43;3.13;;;;;;;;;;4912260;29;20190;-77
2022/07/09 05:16:33;;;;;;;6.43;3.23;;;;;;;;;;4916833;29;20311;-77
2022/07/09 05:18:58;;;;;;;3.50;3.10;;;;;;;;;;4910190;29;20218;-76
2022/07/09 05:21:24;;;;;;;4.20;3.23;;;;;;;;;;4918159;29;20215;-77
2022/07/09 05:23:50;;;;;;;4.47;3.40;;;;;;;;;;4929194;29;20184;-77
2022/07/09 05:26:15;;;;;;;7.23;3.13;;;;;;;;;;4915851;29;20224;-76
2022/07/09 05:28:41;;;;;;;4.53;2.77;;;;;;;;;;4912586;29;20219;-77
2022/07/09 05:31:06;;;;;;;4.90;2.80;;;;;;;;;;4911030;29;20178;-77
2022/07/09 05:33:32;;;;;;;3.57;2.97;;;;;;;;;;4912094;29;20491;-77
2022/07/09 05:35:57;;;;;;;6.97;3.40;;;;;;;;;;4913143;29;20184;-77
2022/07/09 05:38:22;;;;;;;6.73;3.53;;;;;;;;;;4914773;29;20200;-77
2022/07/09 05:40:47;;;;;;;5.83;3.27;;;;;;;;;;4908118;29;20216;-77
2022/07/09 05:43:13;;;;;;;4.60;3.23;;;;;;;;;;4911933;29;20223;-76
2022/07/09 05:45:38;;;;;;;4.03;2.60;;;;;;;;;;4911438;29;20185;-78
2022/07/09 05:48:03;;;;;;;5.33;3.03;;;;;;;;;;4912166;29;20267;-77
2022/07/09 05:50:31;;;;;;;4.60;2.63;;;;;;;;;;4910594;29;20185;-77
2022/07/09 05:52:56;;;;;;;3.53;2.60;;;;;;;;;;4909462;29;20189;-77
2022/07/09 05:55:21;;;;;;;6.53;3.10;;;;;;;;;;4910498;29;20204;-77
2022/07/09 05:57:46;;;;;;;2.63;2.40;;;;;;;;;;4907836;29;20244;-78
2022/07/09 06:00:12;;;;;;;3.77;2.73;;;;;;;;;;4923834;29;20205;-77
2022/07/09 06:02:37;;;;;;;5.80;3.27;;;;;;;;;;4907461;29;20186;-77
2022/07/09 06:05:03;;;;;;;3.97;2.73;;;;;;;;;;4913877;29;20185;-78
2022/07/09 06:07:28;;;;;;;5.60;3.10;;;;;;;;;;4910970;29;20179;-77
2022/07/09 06:09:53;;;;;;;3.13;2.93;;;;;;;;;;4919055;29;20188;-77
2022/07/09 06:12:18;;;;;;;2.87;2.50;;;;;;;;;;4914470;29;20186;-77
2022/07/09 06:14:44;;;;;;;3.03;2.73;;;;;;;;;;4914274;29;20190;-77
2022/07/09 06:17:09;;;;;;;3.63;2.63;;;;;;;;;;4912025;29;20179;-78
2022/07/09 06:19:35;;;;;;;5.70;2.50;;;;;;;;;;4913184;29;20246;-77
2022/07/09 06:22:00;;;;;;;2.17;1.97;;;;;;;;;;4914935;29;20219;-77
2022/07/09 06:24:26;;;;;;;4.77;2.40;;;;;;;;;;4910728;29;20186;-77
2022/07/09 06:26:51;;;;;;;2.87;2.57;;;;;;;;;;4903147;29;20238;-77
2022/07/09 06:29:16;;;;;;;3.87;1.93;;;;;;;;;;4911794;29;20370;-77
2022/07/09 06:31:41;;;;;;;4.00;2.20;;;;;;;;;;4912139;29;20190;-77
2022/07/09 06:34:06;;;;;;;3.90;2.03;;;;;;;;;;4910552;29;20183;-77
2022/07/09 06:36:32;;;;;;;2.23;1.97;;;;;;;;;;4913533;29;20187;-77
2022/07/09 06:41:44;;;;;;;1.70;1.60;;;;;;;;;;4912097;29;20225;-78
2022/07/09 06:44:09;;;;;;;4.33;2.70;;;;;;;;;;4915086;29;20183;-77
2022/07/09 06:46:35;;;;;;;3.60;2.50;;;;;;;;;;4920571;29;20174;-78
2022/07/09 06:49:00;;;;;;;2.97;1.93;;;;;;;;;;4914818;29;20282;-77
2022/07/09 06:51:26;;;;;;;3.07;2.03;;;;;;;;;;4914702;29;20271;-77
2022/07/09 06:53:51;;;;;;;3.30;2.40;;;;;;;;;;4914986;29;20199;-78
2022/07/09 06:56:16;;;;;;;4.67;2.83;;;;;;;;;;4916024;29;20232;-78
2022/07/09 06:58:41;;;;;;;3.17;2.00;;;;;;;;;;4920519;29;20222;-78
2022/07/09 07:01:07;;;;;;;3.07;2.20;;;;;;;;;;4917753;29;20222;-78
2022/07/09 07:03:32;;;;;;;2.87;2.10;;;;;;;;;;4912120;29;20182;-78
2022/07/09 07:05:57;;;;;;;3.00;2.70;;;;;;;;;;4911193;29;20261;-79
2022/07/09 07:08:22;;;;;;;6.20;2.37;;;;;;;;;;4914149;29;20183;-79
2022/07/09 07:10:47;;;;;;;6.33;2.10;;;;;;;;;;4914263;29;20269;-78
2022/07/09 07:13:13;;;;;;;4.23;2.93;;;;;;;;;;4910144;29;20232;-78
2022/07/09 07:15:41;;;;;;;5.10;2.13;;;;;;;;;;4911516;29;20229;-77
2022/07/09 07:18:06;;;;;;;4.17;2.20;;;;;;;;;;4913428;29;20261;-78
2022/07/09 07:20:31;;;;;;;2.50;1.80;;;;;;;;;;4913572;29;20309;-77
2022/07/09 07:22:56;;;;;;;3.03;1.93;;;;;;;;;;4916997;29;20177;-78
2022/07/09 07:25:22;;;;;;;3.37;2.10;;;;;;;;;;4914603;29;20297;-77
2022/07/09 07:27:47;;;;;;;2.30;1.80;;;;;;;;;;4915961;29;20236;-78
2022/07/09 07:30:12;;;;;;;3.47;2.33;;;;;;;;;;4910797;29;20183;-78
2022/07/09 07:32:38;;;;;;;3.47;2.10;;;;;;;;;;4917038;29;20191;-77
2022/07/09 07:35:04;;;;;;;4.17;1.93;;;;;;;;;;4912529;29;20210;-78
2022/07/09 07:37:31;;;;;;;4.00;2.20;;;;;;;;;;4907392;29;20182;-78
2022/07/09 07:39:57;;;;;;;3.30;2.77;;;;;;;;;;4914411;29;20218;-78
2022/07/09 07:42:22;;;;;;;2.80;2.00;;;;;;;;;;4910720;29;20182;-77
2022/07/09 07:44:48;;;;;;;4.13;2.53;;;;;;;;;;4913617;29;20180;-78
2022/07/09 07:47:13;;;;;;;2.00;1.90;;;;;;;;;;4908260;29;20244;-79
2022/07/09 07:49:38;;;;;;;5.23;2.00;;;;;;;;;;4913312;29;20185;-78
2022/07/09 07:52:04;;;;;;;4.03;1.80;;;;;;;;;;4911018;29;20180;-78
2022/07/09 07:54:30;;;;;;;3.33;1.97;;;;;;;;;;4911261;29;20184;-78
2022/07/09 07:56:57;;;;;;;2.30;1.93;;;;;;;;;;4911850;29;20205;-78
2022/07/09 07:59:22;;;;;;;2.33;1.80;;;;;;;;;;4913677;29;20236;-78
2022/07/09 08:01:47;;;;;;;3.00;1.57;;;;;;;;;;4913462;29;20244;-78
2022/07/09 08:04:12;;;;;;;2.57;1.70;;;;;;;;;;4917642;29;20269;-78
2022/07/09 08:06:37;;;;;;;2.87;1.80;;;;;;;;;;4915611;29;20212;-79
2022/07/09 08:09:03;;;;;;;1.93;1.73;;;;;;;;;;4914015;29;20493;-78
2022/07/09 08:11:30;;;;;;;2.70;1.73;;;;;;;;;;4911540;29;20183;-78
2022/07/09 08:13:56;;;;;;;2.33;1.67;;;;;;;;;;4929359;29;20200;-79
2022/07/09 08:16:21;;;;;;;2.07;1.80;;;;;;;;;;4908231;29;20178;-78
2022/07/09 08:18:46;;;;;;;2.87;1.67;;;;;;;;;;4910708;29;20181;-78
2022/07/09 08:21:11;;;;;;;2.43;1.60;;;;;;;;;;4917525;29;20224;-78
2022/07/09 08:23:51;;;;;;;2.53;1.47;;;;;;;;;;4913977;29;20349;-78
2022/07/09 08:26:17;;;;;;;4.07;1.80;;;;;;;;;;4910679;29;20230;-78
2022/07/09 08:28:42;;;;;;;1.67;1.57;;;;;;;;;;4915004;29;20192;-78
2022/07/09 08:31:07;;;;;;;4.30;1.93;;;;;;;;;;4912959;29;20188;-77
2022/07/09 08:33:32;;;;;;;2.53;1.77;;;;;;;;;;4912680;29;20204;-78
2022/07/09 08:35:58;;;;;;;1.70;1.60;;;;;;;;;;4903465;29;20195;-78
2022/07/09 08:38:23;;;;;;;5.67;2.00;;;;;;;;;;4920069;29;20211;-78
2022/07/09 08:40:48;;;;;;;3.20;1.83;;;;;;;;;;4908187;29;20247;-79
2022/07/09 08:43:14;;;;;;;2.10;1.67;;;;;;;;;;4910460;29;20203;-78
2022/07/09 08:45:41;;;;;;;1.80;1.60;;;;;;;;;;4911105;29;20193;-78
2022/07/09 08:48:07;;;;;;;2.67;1.43;;;;;;;;;;4914890;29;20178;-78
2022/07/09 08:50:33;;;;;;;3.47;2.20;;;;;;;;;;4912567;29;20188;-78
2022/07/09 08:52:59;;;;;;;2.53;1.80;;;;;;;;;;4907528;29;20211;-78
2022/07/09 08:55:25;;;;;;;2.50;1.80;;;;;;;;;;4908261;29;20190;-78
2022/07/09 08:57:51;;;;;;;2.73;1.90;;;;;;;;;;4904941;29;20219;-78
2022/07/09 09:00:16;;;;;;;3.87;1.70;;;;;;;;;;4907548;29;20213;-78
2022/07/09 09:02:41;;;;;;;4.53;1.87;;;;;;;;;;4905429;29;20181;-78
2022/07/09 09:05:11;;;;;;;2.50;1.73;;;;;;;;;;4905321;29;20178;-78
2022/07/09 09:07:36;;;;;;;4.03;1.50;;;;;;;;;;4902647;29;20181;-77
2022/07/09 09:10:02;;;;;;;2.60;2.23;;;;;;;;;;4911104;29;20217;-78
2022/07/09 09:12:28;;;;;;;3.63;2.20;;;;;;;;;;4909586;29;20241;-79
2022/07/09 09:14:53;;;;;;;1.90;1.70;;;;;;;;;;4905180;29;20206;-78
2022/07/09 09:17:18;;;;;;;3.47;2.10;;;;;;;;;;4916818;29;20183;-78
2022/07/09 09:19:44;;;;;;;1.83;1.73;;;;;;;;;;4908096;29;20181;-76
2022/07/09 09:22:09;;;;;;;2.30;1.70;;;;;;;;;;4911261;29;20217;-78
2022/07/09 09:24:34;;;;;;;3.27;1.77;;;;;;;;;;4913146;29;20186;-77
2022/07/09 09:27:00;;;;;;;5.10;1.87;;;;;;;;;;4904457;29;20263;-79
2022/07/09 09:29:26;;;;;;;2.00;1.80;;;;;;;;;;4917166;29;20190;-78
2022/07/09 09:31:52;;;;;;;4.03;1.77;;;;;;;;;;4911079;29;20198;-78
2022/07/09 09:34:17;;;;;;;3.23;2.17;;;;;;;;;;4906610;29;20183;-78
2022/07/09 09:36:46;;;;;;;1.93;1.63;;;;;;;;;;4909403;29;20188;-77
2022/07/09 09:39:18;;;;;;;2.27;1.67;;;;;;;;;;4909745;29;20190;-78
2022/07/09 09:41:45;;;;;;;3.67;2.27;;;;;;;;;;4911052;29;20348;-78
2022/07/09 09:44:11;;;;;;;2.63;2.00;;;;;;;;;;4913205;29;20284;-78
2022/07/09 09:46:37;;;;;;;2.00;1.80;;;;;;;;;;4910259;29;20233;-78
2022/07/09 09:49:06;;;;;;;1.90;1.50;;;;;;;;;;4918077;29;20189;-77
2022/07/09 09:51:33;;;;;;;2.07;1.60;;;;;;;;;;4905243;29;20192;-78
2022/07/09 09:53:59;;;;;;;1.67;1.57;;;;;;;;;;4905915;29;20253;-78
2022/07/09 09:56:25;;;;;;;2.67;1.80;;;;;;;;;;4916303;29;20435;-78
2022/07/09 09:58:51;;;;;;;4.03;1.63;;;;;;;;;;4916208;29;20239;-78
2022/07/09 10:01:16;;;;;;;3.50;1.80;;;;;;;;;;4913644;29;20225;-79
2022/07/09 10:03:42;;;;;;;1.70;1.60;;;;;;;;;;4913978;29;20184;-78
2022/07/09 10:06:07;;;;;;;1.80;1.60;;;;;;;;;;4911043;29;20199;-78
2022/07/09 10:08:33;;;;;;;2.53;1.57;;;;;;;;;;4907760;29;20199;-78
2022/07/09 10:10:58;;;;;;;1.93;1.63;;;;;;;;;;4913663;29;20192;-78
2022/07/09 10:13:23;;;;;;;3.83;1.60;;;;;;;;;;4914112;29;20187;-78
2022/07/09 10:15:49;;;;;;;2.23;1.93;;;;;;;;;;4910377;29;20185;-78
2022/07/09 10:18:18;;;;;;;3.90;1.50;;;;;;;;;;4914516;29;20543;-78
2022/07/09 10:20:43;;;;;;;1.77;1.67;;;;;;;;;;4934406;29;20246;-79
2022/07/09 10:23:19;;;;;;;1.93;1.50;;;;;;;;;;4918988;29;20266;-78
2022/07/09 10:25:50;;;;;;;1.40;1.30;;;;;;;;;;4915821;29;20256;-78
2022/07/09 10:28:16;;;;;;;1.93;1.53;;;;;;;;;;4912597;29;20179;-79
2022/07/09 10:30:42;;;;;;;1.60;1.50;;;;;;;;;;4920503;29;20197;-78
2022/07/09 10:33:11;;;;;;;2.33;1.40;;;;;;;;;;4916185;29;20198;-79
2022/07/09 10:35:40;;;;;;;1.57;1.47;;;;;;;;;;4909883;29;20186;-78
2022/07/09 10:38:05;;;;;;;1.70;1.40;;;;;;;;;;4929848;29;20205;-78
2022/07/09 10:40:37;;;;;;;1.87;1.43;;;;;;;;;;4914607;29;20206;-78
2022/07/09 10:43:02;;;;;;;1.77;1.63;;;;;;;;;;4910352;29;20187;-78
2022/07/09 10:45:35;;;;;;;1.90;1.80;;;;;;;;;;4918191;29;20178;-78
2022/07/09 10:48:00;;;;;;;1.40;1.30;;;;;;;;;;4927870;29;20180;-78
2022/07/09 10:50:30;;;;;;;2.30;1.50;;;;;;;;;;4915388;29;20195;-78
2022/07/09 10:52:56;;;;;;;1.83;1.70;;;;;;;;;;4924203;29;20196;-78
2022/07/09 10:55:22;;;;;;;1.70;1.60;;;;;;;;;;4915505;29;20183;-78
2022/07/09 10:57:47;;;;;;;1.83;1.73;;;;;;;;;;4913948;29;20204;-79
2022/07/09 11:00:13;;;;;;;1.77;1.67;;;;;;;;;;4915903;29;20223;-79
2022/07/09 11:02:49;;;;;;;2.07;1.80;;;;;;;;;;4913145;29;20179;-78
2022/07/09 11:05:15;;;;;;;3.15;1.67;;;;;;;;;;4914912;29;20190;-78
2022/07/09 11:07:40;;;;;;;3.30;2.00;;;;;;;;;;4914168;29;20191;-78
2022/07/09 11:10:05;;;;;;;2.53;1.90;;;;;;;;;;4914921;29;20196;-77
2022/07/09 11:12:30;;;;;;;3.20;1.80;;;;;;;;;;4905626;29;20277;-78
2022/07/09 11:14:56;;;;;;;2.37;1.87;;;;;;;;;;4911449;29;20273;-77
2022/07/09 11:17:21;;;;;;;2.83;2.10;;;;;;;;;;4911023;29;20190;-78
2022/07/09 11:19:47;;;;;;;3.88;2.78;;;;;;;;;;4913877;29;20273;-78
2022/07/09 11:22:13;;;;;;;2.30;1.90;;;;;;;;;;4914001;29;20190;-78
2022/07/09 11:24:38;;;;;;;2.47;1.80;;;;;;;;;;4913263;29;20182;-79
2022/07/09 11:27:04;;;;;;;2.10;1.90;;;;;;;;;;4908063;29;20223;-78
2022/07/09 11:29:30;;;;;;;1.83;1.70;;;;;;;;;;4916985;29;20182;-78
2022/07/09 11:31:55;;;;;;;2.95;1.83;;;;;;;;;;4912507;29;20193;-78
2022/07/09 11:34:20;;;;;;;1.63;1.53;;;;;;;;;;4921304;29;20190;-78
2022/07/09 11:36:52;;;;;;;1.77;1.67;;;;;;;;;;4914924;29;20179;-78
2022/07/09 11:39:28;;;;;;;2.67;1.55;;;;;;;;;;4916345;29;20185;-78
2022/07/09 11:41:54;;;;;;;3.17;2.58;;;;;;;;;;4909424;29;20249;-78
2022/07/09 11:44:29;;;;;;;3.57;1.77;;;;;;;;;;4912991;29;20213;-78
2022/07/09 11:47:07;;;;;;;1.70;1.60;;;;;;;;;;4915782;29;20500;-78
2022/07/09 11:49:39;;;;;;;1.90;1.40;;;;;;;;;;4909219;29;20205;-79
2022/07/09 11:52:25;;;;;;;1.60;1.50;;;;;;;;;;4913641;29;20195;-78
2022/07/09 11:55:00;;;;;;;1.90;1.70;;;;;;;;;;4932240;29;20269;-78
2022/07/09 11:57:26;;;;;;;1.92;1.70;;;;;;;;;;4914772;29;20232;-78
2022/07/09 11:59:52;;;;;;;1.92;1.73;;;;;;;;;;4911561;29;20190;-78
2022/07/09 12:02:28;;;;;;;2.05;1.88;;;;;;;;;;4911238;29;20179;-77
2022/07/09 12:04:54;;;;;;;2.13;1.75;;;;;;;;;;4911654;29;20187;-79
2022/07/09 12:07:19;;;;;;;1.95;1.75;;;;;;;;;;4914451;29;20266;-77
2022/07/09 12:09:45;;;;;;;1.95;1.73;;;;;;;;;;4912991;29;20234;-77
2022/07/09 12:12:10;;;;;;;2.20;1.60;;;;;;;;;;4937507;29;20482;-79
2022/07/09 12:14:35;;;;;;;2.03;1.80;;;;;;;;;;4910489;29;20278;-79
2022/07/09 12:17:00;;;;;;;3.55;1.60;;;;;;;;;;4912995;29;20194;-78
2022/07/09 12:19:26;;;;;;;2.33;1.90;;;;;;;;;;4906147;29;20198;-78
2022/07/09 12:21:51;;;;;;;1.88;1.55;;;;;;;;;;4913892;29;20215;-78
2022/07/09 12:24:17;;;;;;;2.10;1.80;;;;;;;;;;4915501;29;20239;-77
2022/07/09 12:26:42;;;;;;;2.00;1.77;;;;;;;;;;4908467;29;20254;-78
2022/07/09 12:29:07;;;;;;;2.13;1.90;;;;;;;;;;4909608;29;20257;-78
2022/07/09 12:31:36;;;;;;;4.43;2.70;;;;;;;;;;4916111;29;20186;-78
2022/07/09 12:34:01;;;;;;;2.65;1.98;;;;;;;;;;4915890;29;20226;-78
2022/07/09 12:36:27;;;;;;;2.00;1.77;;;;;;;;;;4913656;29;20206;-78
2022/07/09 12:38:52;;;;;;;1.85;1.75;;;;;;;;;;4913439;29;20278;-78
2022/07/09 12:41:17;;;;;;;3.28;2.00;;;;;;;;;;4912271;29;20247;-78
2022/07/09 12:43:42;;;;;;;1.75;1.65;;;;;;;;;;4911329;29;20230;-79
2022/07/09 12:46:08;;;;;;;2.20;1.90;;;;;;;;;;4918608;29;20190;-78
2022/07/09 12:48:33;;;;;;;3.53;2.10;;;;;;;;;;4914488;29;20194;-77
2022/07/09 12:50:58;;;;;;;2.10;1.80;;;;;;;;;;4912850;29;20277;-78
2022/07/09 12:53:23;;;;;;;1.75;1.65;;;;;;;;;;4911747;29;20213;-78
2022/07/09 12:55:49;;;;;;;1.65;1.55;;;;;;;;;;4911610;29;20187;-79
2022/07/09 12:58:14;;;;;;;1.65;1.52;;;;;;;;;;4909397;29;20182;-78
2022/07/09 13:00:39;;;;;;;1.75;1.65;;;;;;;;;;4913378;29;20521;-78
2022/07/09 13:03:05;;;;;;;3.03;1.80;;;;;;;;;;4906790;29;20191;-78
2022/07/09 13:05:31;;;;;;;2.03;1.90;;;;;;;;;;4906930;29;20211;-79
2022/07/09 13:07:56;;;;;;;1.75;1.65;;;;;;;;;;4909683;29;20270;-78
2022/07/09 13:10:23;;;;;;;2.10;1.80;;;;;;;;;;4918257;29;20192;-78
2022/07/09 13:12:49;;;;;;;1.55;1.42;;;;;;;;;;4907716;29;20183;-78
2022/07/09 13:15:17;;;;;;;2.10;1.73;;;;;;;;;;4913023;29;20540;-78
2022/07/09 13:17:42;;;;;;;1.85;1.75;;;;;;;;;;4907581;29;20183;-78
2022/07/09 13:20:08;;;;;;;1.92;1.50;;;;;;;;;;4907252;29;20203;-78
2022/07/09 13:22:33;;;;;;;2.45;1.50;;;;;;;;;;4918317;29;20182;-79
2022/07/09 13:24:58;;;;;;;1.80;1.70;;;;;;;;;;4913709;29;20210;-78
2022/07/09 13:27:23;;;;;;;2.08;1.70;;;;;;;;;;4912084;29;20183;-79
2022/07/09 13:29:49;;;;;;;1.83;1.60;;;;;;;;;;4930773;29;20182;-78
2022/07/09 13:32:14;;;;;;;2.35;1.73;;;;;;;;;;4914946;29;20183;-78
2022/07/09 13:34:39;;;;;;;2.25;2.05;;;;;;;;;;4916541;29;20178;-78
2022/07/09 13:37:04;;;;;;;1.98;1.88;;;;;;;;;;4914643;29;20277;-78
2022/07/09 13:39:30;;;;;;;2.05;1.85;;;;;;;;;;4915314;29;20182;-79
2022/07/09 13:41:55;;;;;;;2.20;2.00;;;;;;;;;;4914236;29;20225;-78
2022/07/09 13:44:20;;;;;;;2.53;2.15;;;;;;;;;;4916342;29;20240;-78
2022/07/09 13:46:46;;;;;;;2.75;2.15;;;;;;;;;;4915589;29;20210;-78
2022/07/09 13:49:11;;;;;;;3.35;1.65;;;;;;;;;;4929391;29;20205;-78
2022/07/09 13:51:37;;;;;;;2.50;1.77;;;;;;;;;;4931759;29;20182;-77
2022/07/09 13:54:04;;;;;;;2.30;2.15;;;;;;;;;;4911141;29;20193;-79
2022/07/09 13:56:29;;;;;;;4.32;1.80;;;;;;;;;;4930831;29;20205;-78
2022/07/09 13:58:55;;;;;;;2.22;2.00;;;;;;;;;;4915307;29;20191;-78
2022/07/09 14:01:20;;;;;;;4.50;2.25;;;;;;;;;;4933528;29;20206;-78
2022/07/09 14:03:46;;;;;;;2.15;1.95;;;;;;;;;;4916721;29;20182;-78
2022/07/09 14:06:11;;;;;;;2.33;2.10;;;;;;;;;;4917689;29;20186;-78
2022/07/09 14:08:38;;;;;;;1.88;1.70;;;;;;;;;;4915559;29;20178;-78
2022/07/09 14:11:05;;;;;;;2.00;1.80;;;;;;;;;;4915221;29;20186;-78
2022/07/09 14:13:31;;;;;;;2.05;1.83;;;;;;;;;;4911222;29;20174;-78
2022/07/09 14:15:57;;;;;;;1.85;1.73;;;;;;;;;;4931268;29;20193;-78
2022/07/09 14:18:23;;;;;;;3.55;2.28;;;;;;;;;;4912154;29;20179;-78
2022/07/09 14:20:48;;;;;;;1.80;1.70;;;;;;;;;;4916987;29;20198;-77
2022/07/09 14:23:14;;;;;;;3.08;2.33;;;;;;;;;;4930308;29;20185;-78
2022/07/09 14:25:40;;;;;;;2.60;1.83;;;;;;;;;;4911469;29;20230;-78
2022/07/09 14:28:05;;;;;;;2.10;1.90;;;;;;;;;;4909785;29;20179;-78
2022/07/09 14:30:31;;;;;;;3.03;2.33;;;;;;;;;;4916283;29;20187;-77
2022/07/09 14:32:56;;;;;;;2.30;2.10;;;;;;;;;;4916403;29;20191;-78
2022/07/09 14:35:21;;;;;;;2.63;1.80;;;;;;;;;;4914760;29;20187;-78
2022/07/09 14:37:47;;;;;;;2.20;1.80;;;;;;;;;;4913284;29;20287;-78